Juniata, Nebraska
Current Conditions -  °F | °C
As of 2:53 AM on Thursday 27 Nov 2014 (Local Time) from KHSI Reporting Station
Overcast Overcast  
Wind Chill: 10°   Ceiling: 9500
Heat Index: 19°   Visibility: 10mi
Dew Point: 15°   Wind: 7mph
Humidity: 85%   Direction: 50°NE
Pressure: 30.41"   Gusts: NA
Location:  40.59°N, 98.51°W
Report Text: KHSI 270853Z AUTO 05006KT 10SM OVC095 M07/M09 A3041 RMK AO2 SLP324 T10721094 58007
Loading
Personal Weather Stations






























Interactive Weather Map New forecast layout! Learn more

10-Day Weather Forecast

Advertisements
Track Severe Weather on mobile